Etusivu
METAR-TAF:

METAR-TAF

Lentoasemat :

Arvidsjaur, Ruotsi

Leveyspiiri: 65-35-25N, Pituuspiiri: 019-16-55E, korkeus merenpinnasta: 379 m

Tämänhetkinen sää

Tämä raportti tehtiin 21 minuuttia sitten, kello 06.20 UTC
tyyntä
Lämpötila -7°C
Kosteus 93%
Ilmanpaine 988 hPa
Näkyvyys 10 km tai enemmän

METAR: ESNX 190620Z AUTO 00000KT 9999 FEW140/// M07/M08 Q0988

Aika: 07:41 (06:41 UTC)

Sääennuste

Tämä raportti tehtiin 1 tunti ja 11 minuuttia sitten, kello 05.30 UTC
Ennuste voimassa 19. päivästä klo 06 UTC - 19. päivään klo 15 UTC
Tuuli 2 kn eri suunnista
Näkyvyys 10 km tai enemmän
Hajanaisia pilviä 1000 ft:n korkeudessa
Todennäköisyys 40%
19. päivästä klo 06 UTC - 19. päivään klo 09 UTC
Näkyvyys: 1400 m
sumuhattaroita

TAF: ESNX 190530Z 1906/1915 VRB02KT 9999 SCT010 PROB40 1906/1909 1400 BCFG

Säähavainnot ja -ennusteet yli 4000 lentoasemalta (METAR- ja TAF-raportit).

Käytössä olevat sääasemat on merkitty karttaan keltaisilla ja punaisilla pisteillä.

Aseta hiiri pisteen päälle nähdäksesi sääaseman nimen.

Klikkaa sitten nähdäksesi säähavainnot ja -ennusteet.

Kartan vaihtaminen: klikkaa mustalla rastilla varustettuja vihreitä pisteitä, niin voit zoomata sisään; viivalla varustettua vihreää pistettä, niin voit zoomata ulos tai vihreitä nuolia, niin pääset viereisille kartoille.


METAR-TAF: